Big Bear Station Historical Data
Daily Summary for February 25, 2019 Units:  English    Metric   Both
Next Day »
Daily Weekly Monthly Yearly Custom
  High: Low: Average:
Temperature: 50.7 °F 20.8 °F 32.3 °F
Dew Point: 29.8 °F 17.1 °F 22.2 °F
Humidity: 91% 28% 70%
Wind Speed: 5.8mph 0.0mph 0.7mph
Wind Gust: -999.0mph - -
Wind- - WNW
Pressure: 23.50 in 23.44 in -
Precipitation: 0.00 in    
Historical Graphs
 
 
Tabular Data for February 25, 2019
Time Temperature Dew Point Pressure Wind Wind Speed Wind Gust Humidity Rainfall Rate (Hourly)
00:03 21.6 °F 19.1 °F 23.46 in Calm   -999.0 mph 90% 0.00 in
00:18 21.7 °F 19.2 °F 23.46 in Calm   -999.0 mph 90% 0.00 in
00:34 21.0 °F 18.5 °F 23.46 in Calm   -999.0 mph 90% 0.00 in
00:49 21.0 °F 18.8 °F 23.47 in Calm   -999.0 mph 91% 0.00 in
01:04 21.4 °F 18.7 °F 23.47 in Calm   -999.0 mph 89% 0.00 in
01:19 21.2 °F 18.7 °F 23.47 in Calm   -999.0 mph 90% 0.00 in
01:34 20.8 °F 18.3 °F 23.46 in Calm   -999.0 mph 90% 0.00 in
01:50 20.8 °F 18.3 °F 23.46 in Calm   -999.0 mph 90% 0.00 in
02:05 21.0 °F 18.5 °F 23.47 in Calm   -999.0 mph 90% 0.00 in
02:20 21.2 °F 18.7 °F 23.46 in Calm   -999.0 mph 90% 0.00 in
02:35 21.4 °F 18.9 °F 23.45 in Calm   -999.0 mph 90% 0.00 in
02:50 21.2 °F 19.0 °F 23.45 in Calm   -999.0 mph 91% 0.00 in
03:06 21.4 °F 18.9 °F 23.45 in Calm   -999.0 mph 90% 0.00 in
03:21 21.2 °F 18.7 °F 23.45 in Calm   -999.0 mph 90% 0.00 in
03:36 21.4 °F 18.9 °F 23.45 in Calm   -999.0 mph 90% 0.00 in
03:51 21.7 °F 19.2 °F 23.45 in Calm   -999.0 mph 90% 0.00 in
04:07 22.1 °F 19.6 °F 23.44 in Calm   -999.0 mph 90% 0.00 in
04:22 22.3 °F 19.8 °F 23.44 in Calm   -999.0 mph 90% 0.00 in
04:37 22.1 °F 19.6 °F 23.45 in Calm   -999.0 mph 90% 0.00 in
04:52 22.1 °F 19.6 °F 23.45 in Calm   -999.0 mph 90% 0.00 in
05:07 22.5 °F 19.7 °F 23.45 in Calm   -999.0 mph 89% 0.00 in
05:23 22.6 °F 19.8 °F 23.45 in WNW 2.7 mph -999.0 mph 89% 0.00 in
05:38 23.0 °F 20.0 °F 23.45 in Calm   -999.0 mph 88% 0.00 in
05:53 23.0 °F 20.0 °F 23.46 in Calm   -999.0 mph 88% 0.00 in
06:08 22.8 °F 19.8 °F 23.46 in Calm   -999.0 mph 88% 0.00 in
06:23 23.4 °F 20.4 °F 23.46 in Calm   -999.0 mph 88% 0.00 in
06:39 23.0 °F 19.7 °F 23.46 in Calm   -999.0 mph 87% 0.00 in
06:54 22.8 °F 19.5 °F 23.46 in Calm   -999.0 mph 87% 0.00 in
07:09 22.8 °F 19.5 °F 23.47 in Calm   -999.0 mph 87% 0.00 in
07:24 22.8 °F 19.5 °F 23.47 in Calm   -999.0 mph 87% 0.00 in
07:39 23.5 °F 19.1 °F 23.48 in Calm   -999.0 mph 83% 0.00 in
07:55 24.4 °F 20.0 °F 23.48 in Calm   -999.0 mph 83% 0.00 in
08:10 25.3 °F 20.9 °F 23.48 in Calm   -999.0 mph 83% 0.00 in
08:25 26.6 °F 21.3 °F 23.48 in Calm   -999.0 mph 80% 0.00 in
08:40 27.7 °F 22.3 °F 23.48 in SSE 1.7 mph -999.0 mph 80% 0.00 in
08:55 29.7 °F 24.0 °F 23.48 in NNW 3.2 mph -999.0 mph 79% 0.00 in
09:11 32.7 °F 18.3 °F 23.48 in Calm   -999.0 mph 55% 0.00 in
09:26 37.2 °F 17.8 °F 23.48 in NW 1.7 mph -999.0 mph 45% 0.00 in
09:41 41.5 °F 18.4 °F 23.48 in WSW 2.2 mph -999.0 mph 39% 0.00 in
09:57 45.0 °F 20.3 °F 23.48 in North 2.7 mph -999.0 mph 37% 0.00 in
10:12 46.9 °F 22.0 °F 23.48 in Calm   -999.0 mph 37% 0.00 in
10:27 47.7 °F 22.0 °F 23.48 in NW 1.7 mph -999.0 mph 36% 0.00 in
10:42 48.0 °F 22.9 °F 23.48 in Calm   -999.0 mph 37% 0.00 in
10:57 47.7 °F 20.7 °F 23.48 in Calm   -999.0 mph 34% 0.00 in
11:13 48.9 °F 21.0 °F 23.48 in Calm   -999.0 mph 33% 0.00 in
11:28 50.2 °F 22.2 °F 23.48 in NW 3.2 mph -999.0 mph 33% 0.00 in
11:43 50.7 °F 21.9 °F 23.47 in NE 1.1 mph -999.0 mph 32% 0.00 in
11:59 50.0 °F 22.7 °F 23.47 in NW 5.8 mph -999.0 mph 34% 0.00 in
12:14 50.5 °F 22.4 °F 23.47 in NNW 3.2 mph -999.0 mph 33% 0.00 in
12:30 49.1 °F 24.6 °F 23.47 in North 2.7 mph -999.0 mph 38% 0.00 in
12:45 49.1 °F 23.9 °F 23.46 in NW 2.2 mph -999.0 mph 37% 0.00 in
13:00 48.4 °F 20.6 °F 23.46 in NNW 3.7 mph -999.0 mph 33% 0.00 in
13:16 50.5 °F 18.6 °F 23.46 in Calm   -999.0 mph 28% 0.00 in
13:31 47.8 °F 17.1 °F 23.45 in North 4.7 mph -999.0 mph 29% 0.00 in
13:46 47.5 °F 22.5 °F 23.45 in Calm   -999.0 mph 37% 0.00 in
14:01 47.1 °F 22.8 °F 23.45 in NW 3.2 mph -999.0 mph 38% 0.00 in
14:16 46.9 °F 24.4 °F 23.46 in WNW 4.2 mph -999.0 mph 41% 0.00 in
14:32 47.1 °F 26.8 °F 23.45 in NW 2.2 mph -999.0 mph 45% 0.00 in
14:47 44.4 °F 28.3 °F 23.46 in NW 2.7 mph -999.0 mph 53% 0.00 in
15:02 44.2 °F 29.5 °F 23.46 in WNW 2.2 mph -999.0 mph 56% 0.00 in
15:17 43.7 °F 29.0 °F 23.46 in Calm   -999.0 mph 56% 0.00 in
15:32 43.2 °F 29.0 °F 23.46 in West 1.7 mph -999.0 mph 57% 0.00 in
15:48 42.8 °F 29.5 °F 23.46 in NNW 3.2 mph -999.0 mph 59% 0.00 in
16:03 42.1 °F 29.6 °F 23.46 in Calm   -999.0 mph 61% 0.00 in
16:18 42.1 °F 29.2 °F 23.46 in WNW 3.7 mph -999.0 mph 60% 0.00 in
16:23 42.1 °F 29.2 °F 23.46 in Calm   -999.0 mph 60% 0.00 in
16:25 41.9 °F 29.4 °F 23.46 in North 2.2 mph -999.0 mph 61% 0.00 in
16:41 40.8 °F 29.6 °F 23.47 in Calm   -999.0 mph 64% 0.00 in
16:56 39.9 °F 29.8 °F 23.46 in Calm   -999.0 mph 67% 0.00 in
17:11 39.0 °F 29.7 °F 23.47 in Calm   -999.0 mph 69% 0.00 in
17:27 37.9 °F 29.3 °F 23.47 in Calm   -999.0 mph 71% 0.00 in
17:42 36.9 °F 28.7 °F 23.47 in Calm   -999.0 mph 72% 0.00 in
17:57 35.8 °F 28.0 °F 23.47 in Calm   -999.0 mph 73% 0.00 in
18:13 35.1 °F 26.6 °F 23.47 in Calm   -999.0 mph 71% 0.00 in
18:28 34.5 °F 24.7 °F 23.47 in Calm   -999.0 mph 67% 0.00 in
18:43 33.6 °F 25.9 °F 23.47 in Calm   -999.0 mph 73% 0.00 in
18:59 32.4 °F 24.4 °F 23.48 in Calm   -999.0 mph 72% 0.00 in
19:14 31.1 °F 23.8 °F 23.48 in Calm   -999.0 mph 74% 0.00 in
19:29 30.2 °F 23.2 °F 23.48 in Calm   -999.0 mph 75% 0.00 in
19:44 29.8 °F 23.2 °F 23.47 in Calm   -999.0 mph 76% 0.00 in
19:59 28.8 °F 22.5 °F 23.47 in Calm   -999.0 mph 77% 0.00 in
20:15 28.0 °F 22.6 °F 23.48 in Calm   -999.0 mph 80% 0.00 in
20:30 27.5 °F 22.1 °F 23.48 in Calm   -999.0 mph 80% 0.00 in
20:46 26.8 °F 21.8 °F 23.48 in Calm   -999.0 mph 81% 0.00 in
21:01 27.0 °F 21.9 °F 23.49 in Calm   -999.0 mph 81% 0.00 in
21:16 26.1 °F 21.1 °F 23.49 in Calm   -999.0 mph 81% 0.00 in
21:31 25.5 °F 21.3 °F 23.49 in Calm   -999.0 mph 84% 0.00 in
21:46 25.2 °F 22.1 °F 23.49 in Calm   -999.0 mph 88% 0.00 in
22:02 25.7 °F 22.4 °F 23.50 in Calm   -999.0 mph 87% 0.00 in
22:17 25.5 °F 21.3 °F 23.50 in Calm   -999.0 mph 84% 0.00 in
22:32 24.4 °F 20.5 °F 23.49 in Calm   -999.0 mph 85% 0.00 in
22:47 24.6 °F 20.5 °F 23.49 in Calm   -999.0 mph 84% 0.00 in
23:03 24.1 °F 20.2 °F 23.49 in Calm   -999.0 mph 85% 0.00 in
23:18 24.6 °F 19.9 °F 23.49 in Calm   -999.0 mph 82% 0.00 in
23:33 24.1 °F 20.2 °F 23.50 in Calm   -999.0 mph 85% 0.00 in
23:48 23.7 °F 19.9 °F 23.49 in Calm   -999.0 mph 85% 0.00 in
Big Bear CA Weather